createdAt,value
2018-05-18T00:01:16.897Z,28.42
2018-05-18T00:03:44.439Z,27.75
2018-05-18T00:06:11.996Z,29.52
2018-05-18T00:08:40.277Z,23.65
2018-05-18T00:11:07.784Z,22.48
2018-05-18T00:13:35.400Z,28.55
2018-05-18T00:16:03.673Z,33.50
2018-05-18T00:18:31.954Z,23.00
2018-05-18T00:21:00.238Z,20.30
2018-05-18T00:23:27.787Z,26.67
2018-05-18T00:25:56.174Z,25.58
2018-05-18T00:28:23.673Z,21.73
2018-05-18T00:30:51.221Z,26.67
2018-05-18T00:33:18.770Z,31.87
2018-05-18T00:35:47.313Z,26.62
2018-05-18T00:38:15.581Z,25.20
2018-05-18T00:40:43.849Z,21.48
2018-05-18T00:43:11.361Z,29.17
2018-05-18T00:45:38.881Z,22.85
2018-05-18T00:48:07.268Z,27.95
2018-05-18T00:50:35.644Z,23.27
2018-05-18T00:53:03.900Z,21.73
2018-05-18T00:55:40.096Z,24.45
2018-05-18T00:58:07.577Z,27.25
2018-05-18T01:00:35.085Z,21.65
2018-05-18T01:03:12.584Z,26.75
2018-05-18T01:05:40.892Z,25.58
2018-05-18T01:08:08.567Z,27.37
2018-05-18T01:10:36.076Z,28.75
2018-05-18T01:13:03.647Z,23.25
2018-05-18T01:15:31.936Z,24.20
2018-05-18T01:17:59.457Z,28.65
2018-05-18T01:20:27.029Z,25.02
2018-05-18T01:22:55.303Z,27.80
2018-05-18T01:25:22.790Z,26.48
2018-05-18T01:27:50.289Z,18.95
2018-05-18T01:30:17.791Z,23.20
2018-05-18T01:32:46.105Z,28.38
2018-05-18T01:35:13.636Z,26.40
2018-05-18T01:37:41.212Z,28.33
2018-05-18T01:40:08.779Z,36.88
2018-05-18T01:42:36.340Z,43.58
2018-05-18T01:45:03.861Z,33.50
2018-05-18T01:47:32.242Z,33.15
2018-05-18T01:50:00.546Z,35.83
2018-05-18T01:52:28.073Z,42.45
2018-05-18T01:54:56.458Z,57.70
2018-05-18T01:57:24.732Z,38.05
2018-05-18T01:59:53.009Z,39.47
2018-05-18T02:02:21.668Z,34.88
2018-05-18T02:04:49.368Z,34.00
2018-05-18T02:07:16.929Z,47.60
2018-05-18T02:09:44.513Z,48.95
2018-05-18T02:12:12.017Z,51.63
2018-05-18T02:14:40.296Z,49.13
2018-05-18T02:17:08.585Z,47.62
2018-05-18T02:19:36.965Z,58.67
2018-05-18T02:22:05.342Z,56.55
2018-05-18T02:24:33.691Z,50.72
2018-05-18T02:27:01.182Z,50.12
2018-05-18T02:29:29.448Z,50.80
2018-05-18T02:31:57.720Z,56.85
2018-05-18T02:34:26.013Z,57.42
2018-05-18T02:36:53.519Z,59.75
2018-05-18T02:39:21.039Z,52.83
2018-05-18T02:41:48.603Z,48.15
2018-05-18T02:44:16.129Z,53.08
2018-05-18T02:46:44.399Z,47.72
2018-05-18T02:49:12.039Z,37.78
2018-05-18T02:51:39.545Z,49.05
2018-05-18T02:54:07.090Z,48.08
2018-05-18T02:56:35.477Z,50.43
2018-05-18T02:59:02.981Z,45.55
2018-05-18T03:01:30.605Z,44.22
2018-05-18T03:03:58.168Z,44.17
2018-05-18T03:06:25.671Z,53.87
2018-05-18T03:08:53.465Z,41.05
2018-05-18T03:11:21.753Z,39.70
2018-05-18T03:13:50.131Z,39.03
2018-05-18T03:16:17.673Z,40.83
2018-05-18T03:18:47.461Z,40.70
2018-05-18T03:21:15.102Z,40.95
2018-05-18T03:23:42.601Z,37.55
2018-05-18T03:26:10.899Z,47.15
2018-05-18T03:28:39.276Z,45.90
2018-05-18T03:31:07.533Z,43.50
2018-05-18T03:33:35.837Z,36.83
2018-05-18T03:36:03.429Z,46.67
2018-05-18T03:38:30.940Z,42.42
2018-05-18T03:40:59.192Z,45.35
2018-05-18T03:43:26.713Z,50.42
2018-05-18T03:45:54.285Z,46.97
2018-05-18T03:48:21.816Z,53.83
2018-05-18T03:50:49.344Z,73.43
2018-05-18T03:53:17.783Z,73.37
2018-05-18T03:55:45.275Z,94.60
2018-05-18T03:58:13.565Z,91.37
2018-05-18T04:00:42.061Z,93.18
2018-05-18T04:03:21.517Z,91.90
2018-05-18T04:06:01.065Z,90.93
2018-05-18T04:08:52.353Z,91.80
2018-05-18T04:11:19.832Z,71.50
2018-05-18T04:13:47.375Z,64.78
2018-05-18T04:16:14.963Z,58.97
2018-05-18T04:18:43.621Z,50.90
2018-05-18T04:21:11.203Z,57.10
2018-05-18T04:23:38.744Z,50.92
2018-05-18T04:26:06.263Z,51.97
2018-05-18T04:28:34.699Z,48.92
2018-05-18T04:31:02.315Z,34.63
2018-05-18T04:33:30.597Z,43.97
2018-05-18T04:35:58.897Z,33.85
2018-05-18T04:38:26.467Z,43.30
2018-05-18T04:41:01.814Z,32.63
2018-05-18T04:43:30.811Z,25.92
2018-05-18T04:45:59.019Z,29.67
2018-05-18T04:48:26.516Z,31.73
2018-05-18T04:50:54.120Z,36.92
2018-05-18T04:53:21.582Z,54.33
2018-05-18T04:55:49.092Z,76.65
2018-05-18T04:58:16.630Z,80.43
2018-05-18T05:00:44.932Z,79.47
2018-05-18T05:03:12.444Z,54.38
2018-05-18T05:05:39.933Z,45.53
2018-05-18T05:08:07.454Z,42.10
2018-05-18T05:10:34.987Z,41.63
2018-05-18T05:13:02.502Z,43.35
2018-05-18T05:15:30.799Z,40.50
2018-05-18T05:17:59.126Z,45.85
2018-05-18T05:20:26.625Z,35.80
2018-05-18T05:22:54.216Z,37.05
2018-05-18T05:25:21.716Z,36.03
2018-05-18T05:27:49.250Z,43.47
2018-05-18T05:30:16.773Z,41.75
2018-05-18T05:32:44.321Z,44.90
2018-05-18T05:35:11.851Z,43.03
2018-05-18T05:37:39.366Z,50.00
2018-05-18T05:40:06.879Z,42.55
2018-05-18T05:42:35.166Z,37.35
2018-05-18T05:45:02.677Z,54.80
2018-05-18T05:47:30.185Z,49.90
2018-05-18T05:49:57.702Z,44.78
2018-05-18T05:52:25.217Z,58.38
2018-05-18T05:54:52.736Z,49.05
2018-05-18T05:57:20.324Z,58.55
2018-05-18T05:59:48.077Z,58.90
2018-05-18T06:02:16.352Z,57.33
2018-05-18T06:04:44.638Z,63.70
2018-05-18T06:07:12.278Z,70.07
2018-05-18T06:09:39.871Z,75.62
2018-05-18T06:12:07.469Z,65.72
2018-05-18T06:14:34.918Z,67.05
2018-05-18T06:17:02.526Z,56.78
2018-05-18T06:19:30.904Z,64.47
2018-05-18T06:21:58.468Z,62.33
2018-05-18T06:24:26.004Z,64.07
2018-05-18T06:26:54.361Z,65.40
2018-05-18T06:29:21.869Z,61.63
2018-05-18T06:31:49.387Z,69.05
2018-05-18T06:34:16.896Z,63.67
2018-05-18T06:36:44.426Z,61.00
2018-05-18T06:39:12.699Z,63.83
2018-05-18T06:41:41.018Z,60.15
2018-05-18T06:44:08.546Z,52.62
2018-05-18T06:46:36.107Z,45.53
2018-05-18T06:49:04.428Z,49.80
2018-05-18T06:51:31.980Z,53.05
2018-05-18T06:53:59.465Z,43.65
2018-05-18T06:56:26.996Z,48.87
2018-05-18T06:58:54.523Z,43.70
2018-05-18T07:01:22.042Z,47.38
2018-05-18T07:03:51.037Z,42.95
2018-05-18T07:06:18.623Z,47.05
2018-05-18T07:08:47.233Z,48.17
2018-05-18T07:11:14.739Z,42.20
2018-05-18T07:13:48.409Z,41.30
2018-05-18T07:16:15.941Z,42.53
2018-05-18T07:18:45.655Z,46.97
2018-05-18T07:21:13.165Z,49.75
2018-05-18T07:23:40.675Z,41.57
2018-05-18T07:26:08.245Z,37.28
2018-05-18T07:28:35.820Z,35.13
2018-05-18T07:31:03.380Z,38.97
2018-05-18T07:33:30.933Z,31.03
2018-05-18T07:35:58.449Z,40.50
2018-05-18T07:38:26.758Z,46.17
2018-05-18T07:40:54.333Z,57.47
2018-05-18T07:43:21.820Z,53.93
2018-05-18T07:45:49.349Z,53.20
2018-05-18T07:48:16.929Z,53.90
2018-05-18T07:50:45.605Z,52.17
2018-05-18T07:53:13.125Z,56.93
2018-05-18T07:55:40.701Z,51.37
2018-05-18T07:58:08.223Z,51.70
2018-05-18T08:00:36.617Z,55.70
2018-05-18T08:03:04.148Z,49.83
2018-05-18T08:05:31.674Z,51.80
2018-05-18T08:07:59.200Z,52.50
2018-05-18T08:10:26.724Z,50.53
2018-05-18T08:12:54.314Z,53.17
2018-05-18T08:15:21.907Z,48.47
2018-05-18T08:17:49.436Z,47.30
2018-05-18T08:20:16.973Z,44.70
2018-05-18T08:22:45.265Z,45.73
2018-05-18T08:25:12.785Z,47.13
2018-05-18T08:27:40.318Z,47.33
2018-05-18T08:30:08.628Z,44.23
2018-05-18T08:32:36.184Z,47.93
2018-05-18T08:35:03.693Z,43.70
2018-05-18T08:37:31.208Z,42.33
2018-05-18T08:39:59.461Z,39.20
2018-05-18T08:42:28.502Z,41.17
2018-05-18T08:44:56.015Z,34.43
2018-05-18T08:47:23.544Z,39.07
2018-05-18T08:49:51.073Z,41.73
2018-05-18T08:52:20.825Z,33.33
2018-05-18T08:54:48.346Z,34.00
2018-05-18T08:57:15.964Z,38.77
2018-05-18T08:59:43.527Z,40.10
2018-05-18T09:02:11.037Z,38.17
2018-05-18T09:04:38.578Z,41.17
2018-05-18T09:07:06.109Z,35.57
2018-05-18T09:09:33.609Z,35.20
2018-05-18T09:12:01.115Z,35.70
2018-05-18T09:14:29.455Z,31.70
2018-05-18T09:16:58.669Z,36.63
2018-05-18T09:19:26.861Z,29.47
2018-05-18T09:21:54.445Z,32.97
2018-05-18T09:24:22.705Z,29.60
2018-05-18T09:26:50.206Z,29.87
2018-05-18T09:29:17.729Z,35.60
2018-05-18T09:31:46.032Z,37.77
2018-05-18T09:34:13.602Z,28.30
2018-05-18T09:36:41.088Z,27.10
2018-05-18T09:39:08.683Z,29.50
2018-05-18T09:41:37.053Z,30.13
2018-05-18T09:44:05.373Z,29.50
2018-05-18T09:46:32.853Z,27.37
2018-05-18T09:49:00.393Z,32.30
2018-05-18T09:51:27.881Z,29.40
2018-05-18T09:53:55.469Z,27.00
2018-05-18T09:56:24.261Z,29.17
2018-05-18T09:58:51.929Z,30.00
2018-05-18T10:01:20.201Z,28.83
2018-05-18T10:03:48.457Z,26.70
2018-05-18T10:06:16.033Z,26.60
2018-05-18T10:08:44.313Z,28.03
2018-05-18T10:11:12.683Z,30.27
2018-05-18T10:13:40.978Z,25.43
2018-05-18T10:16:08.484Z,27.33
2018-05-18T10:18:36.050Z,22.43
2018-05-18T10:21:03.514Z,18.37
2018-05-18T10:23:31.024Z,27.07
2018-05-18T10:25:58.557Z,22.90
2018-05-18T10:28:26.822Z,20.50
2018-05-18T10:30:55.096Z,25.77
2018-05-18T10:33:23.348Z,20.83
2018-05-18T10:35:51.716Z,20.83
2018-05-18T10:38:19.242Z,21.13
2018-05-18T10:40:46.730Z,24.03
2018-05-18T10:43:15.265Z,19.90
2018-05-18T10:45:43.531Z,20.73
2018-05-18T10:48:11.796Z,26.40
2018-05-18T10:50:40.103Z,21.00
2018-05-18T10:53:07.695Z,25.13
2018-05-18T10:55:35.952Z,26.57
2018-05-18T10:58:03.468Z,27.10
2018-05-18T11:00:32.573Z,16.03
2018-05-18T11:03:00.859Z,17.63
2018-05-18T11:05:28.369Z,22.57
2018-05-18T11:07:55.956Z,20.60
2018-05-18T11:10:24.272Z,21.63
2018-05-18T11:12:51.771Z,22.03
2018-05-18T11:15:19.355Z,20.40
2018-05-18T11:17:47.773Z,23.00
2018-05-18T11:20:15.273Z,23.17
2018-05-18T11:22:42.760Z,25.03
2018-05-18T11:25:10.290Z,19.70
2018-05-18T11:27:37.777Z,18.63
2018-05-18T11:30:06.145Z,17.97
2018-05-18T11:32:34.408Z,21.27
2018-05-18T11:35:01.921Z,17.73
2018-05-18T11:37:29.459Z,19.60
2018-05-18T11:39:56.991Z,19.60
2018-05-18T11:42:25.291Z,22.63
2018-05-18T11:44:52.793Z,23.07
2018-05-18T11:47:20.296Z,24.33
2018-05-18T11:49:49.477Z,20.23
2018-05-18T11:52:17.753Z,23.60
2018-05-18T11:54:46.223Z,17.73
2018-05-18T11:57:14.465Z,17.77
2018-05-18T11:59:41.951Z,16.73
2018-05-18T12:02:09.455Z,18.47
2018-05-18T12:04:37.069Z,16.10
2018-05-18T12:07:05.445Z,21.27
2018-05-18T12:09:33.629Z,26.93
2018-05-18T12:12:11.812Z,19.27
2018-05-18T12:14:39.358Z,23.10
2018-05-18T12:17:06.840Z,23.13
2018-05-18T12:19:34.394Z,18.93
2018-05-18T12:22:01.931Z,15.57
2018-05-18T12:24:29.440Z,20.63
2018-05-18T12:26:57.837Z,23.47
2018-05-18T12:29:25.340Z,27.10
2018-05-18T12:31:52.907Z,24.00
2018-05-18T12:34:20.449Z,19.33
2018-05-18T12:36:48.843Z,14.73
2018-05-18T12:39:16.373Z,15.57
2018-05-18T12:41:43.891Z,21.37
2018-05-18T12:44:12.413Z,22.70
2018-05-18T12:46:41.191Z,19.17
2018-05-18T12:49:08.707Z,16.80
2018-05-18T12:51:37.077Z,18.90
2018-05-18T12:54:04.699Z,23.23
2018-05-18T12:56:32.111Z,22.67
2018-05-18T12:58:59.849Z,21.20
2018-05-18T13:01:27.404Z,16.60
2018-05-18T13:03:55.110Z,18.60
2018-05-18T13:06:23.685Z,22.13
2018-05-18T13:08:52.131Z,22.90
2018-05-18T13:11:19.628Z,17.20
2018-05-18T13:13:58.075Z,14.80
2018-05-18T13:16:25.573Z,20.57
2018-05-18T13:18:54.957Z,19.07
2018-05-18T13:21:22.473Z,21.93
2018-05-18T13:23:50.051Z,19.03
2018-05-18T13:26:17.692Z,19.33
2018-05-18T13:28:45.957Z,17.60
2018-05-18T13:31:14.275Z,23.57
2018-05-18T13:33:42.071Z,21.80
2018-05-18T13:36:09.584Z,15.47
2018-05-18T13:38:37.387Z,17.77
2018-05-18T13:41:04.988Z,16.77
2018-05-18T13:43:33.393Z,15.00
2018-05-18T13:46:00.933Z,19.90
2018-05-18T13:48:29.251Z,15.47
2018-05-18T13:50:56.749Z,15.33
2018-05-18T13:53:25.863Z,18.33
2018-05-18T13:55:53.411Z,14.70
2018-05-18T13:58:21.665Z,14.33
2018-05-18T14:00:49.939Z,13.77
2018-05-18T14:03:18.193Z,13.47
2018-05-18T14:05:46.461Z,18.77
2018-05-18T14:08:14.130Z,18.13
2018-05-18T14:10:41.764Z,22.57
2018-05-18T14:13:09.303Z,15.53
2018-05-18T14:15:36.895Z,15.33
2018-05-18T14:18:04.585Z,17.70
2018-05-18T14:20:32.117Z,23.67
2018-05-18T14:23:02.525Z,17.13
2018-05-18T14:25:30.852Z,16.67
2018-05-18T14:27:58.440Z,17.33
2018-05-18T14:30:26.002Z,20.83
2018-05-18T14:32:55.141Z,16.77
2018-05-18T14:35:22.625Z,13.80
2018-05-18T14:37:51.013Z,18.70
2018-05-18T14:40:20.045Z,17.17
2018-05-18T14:42:47.571Z,18.80
2018-05-18T14:45:15.841Z,12.17
2018-05-18T14:47:44.126Z,13.30
2018-05-18T14:50:12.370Z,15.30
2018-05-18T14:52:40.003Z,24.63
2018-05-18T14:55:07.511Z,20.00
2018-05-18T14:57:35.069Z,12.63
2018-05-18T15:00:03.332Z,14.07
2018-05-18T15:02:31.534Z,19.63
2018-05-18T15:04:59.811Z,16.07
2018-05-18T15:07:28.064Z,16.50
2018-05-18T15:09:56.366Z,22.37
2018-05-18T15:12:23.870Z,22.20
2018-05-18T15:14:51.393Z,20.33
2018-05-18T15:17:18.884Z,13.80
2018-05-18T15:19:46.394Z,16.97
2018-05-18T15:22:14.768Z,17.20
2018-05-18T15:24:43.144Z,11.60
2018-05-18T15:27:11.489Z,14.70
2018-05-18T15:29:39.037Z,14.53
2018-05-18T15:32:06.530Z,17.13
2018-05-18T15:34:34.045Z,14.70
2018-05-18T15:37:01.570Z,14.13
2018-05-18T15:39:29.863Z,15.70
2018-05-18T15:41:57.392Z,15.93
2018-05-18T15:44:25.709Z,16.43
2018-05-18T15:46:53.208Z,12.43
2018-05-18T15:49:21.526Z,15.57
2018-05-18T15:51:49.814Z,20.43
2018-05-18T15:54:17.301Z,14.10
2018-05-18T15:56:44.802Z,15.13
2018-05-18T15:59:13.145Z,13.10
2018-05-18T16:01:40.747Z,12.90
2018-05-18T16:04:08.997Z,15.87
2018-05-18T16:06:37.385Z,19.40
2018-05-18T16:09:05.639Z,19.33
2018-05-18T16:11:33.222Z,16.13
2018-05-18T16:14:02.312Z,16.83
2018-05-18T16:16:30.594Z,29.17
2018-05-18T16:18:58.981Z,21.23
2018-05-18T16:21:26.628Z,20.63
2018-05-18T16:23:54.989Z,16.40
2018-05-18T16:26:22.507Z,19.37
2018-05-18T16:28:50.040Z,20.23
2018-05-18T16:31:17.485Z,19.43
2018-05-18T16:33:45.766Z,18.43
2018-05-18T16:36:13.284Z,21.20
2018-05-18T16:38:41.262Z,15.13
2018-05-18T16:41:08.742Z,15.90
2018-05-18T16:43:37.014Z,20.53
2018-05-18T16:46:05.289Z,19.70
2018-05-18T16:48:33.551Z,47.07
2018-05-18T16:51:01.167Z,46.13
2018-05-18T16:53:28.691Z,41.73
2018-05-18T16:55:56.221Z,32.67
2018-05-18T16:58:24.559Z,26.03
2018-05-18T17:00:52.053Z,27.60
2018-05-18T17:03:19.653Z,20.67
2018-05-18T17:06:07.236Z,33.93
2018-05-18T17:08:34.737Z,18.63
2018-05-18T17:11:02.248Z,31.90
2018-05-18T17:13:29.758Z,24.63
2018-05-18T17:15:57.371Z,20.10
2018-05-18T17:18:24.899Z,20.63
2018-05-18T17:20:52.510Z,14.70
2018-05-18T17:23:20.181Z,16.93
2018-05-18T17:25:47.769Z,16.27
2018-05-18T17:28:15.612Z,14.33
2018-05-18T17:30:43.928Z,20.53
2018-05-18T17:33:11.502Z,19.53
2018-05-18T17:35:39.102Z,16.63
2018-05-18T17:38:07.397Z,14.93
2018-05-18T17:40:34.949Z,19.83
2018-05-18T17:43:03.315Z,26.27
2018-05-18T17:45:31.616Z,23.10
2018-05-18T17:47:59.120Z,31.80
2018-05-18T17:50:26.641Z,20.40
2018-05-18T17:52:54.155Z,22.77
2018-05-18T17:55:22.433Z,19.00
2018-05-18T17:57:50.683Z,15.47
2018-05-18T18:00:18.302Z,16.57
2018-05-18T18:02:46.083Z,22.37
2018-05-18T18:05:13.594Z,13.93
2018-05-18T18:07:41.852Z,17.90
2018-05-18T18:10:09.438Z,16.77
2018-05-18T18:12:37.732Z,22.00
2018-05-18T18:15:05.257Z,19.90
2018-05-18T18:17:33.437Z,18.83
2018-05-18T18:20:00.942Z,28.63
2018-05-18T18:22:28.495Z,33.60
2018-05-18T18:24:56.020Z,56.20
2018-05-18T18:27:24.310Z,28.37
2018-05-18T18:29:52.585Z,20.70
2018-05-18T18:32:20.848Z,16.90
2018-05-18T18:34:49.124Z,16.70
2018-05-18T18:37:17.508Z,24.87
2018-05-18T18:39:45.774Z,20.93
2018-05-18T18:42:14.142Z,20.27
2018-05-18T18:44:42.361Z,19.10
2018-05-18T18:47:09.852Z,21.93
2018-05-18T18:49:37.471Z,20.77
2018-05-18T18:52:05.071Z,22.70
2018-05-18T18:54:33.286Z,21.43
2018-05-18T18:57:01.653Z,30.77
2018-05-18T18:59:29.240Z,22.10
2018-05-18T19:01:57.503Z,22.30
2018-05-18T19:04:25.784Z,28.27
2018-05-18T19:06:54.157Z,31.60
2018-05-18T19:09:22.472Z,26.53
2018-05-18T19:11:50.006Z,24.77
2018-05-18T19:14:18.433Z,24.97
2018-05-18T19:16:46.076Z,27.80
2018-05-18T19:19:13.628Z,24.13
2018-05-18T19:21:41.305Z,23.70
2018-05-18T19:24:08.881Z,22.73
2018-05-18T19:26:37.230Z,17.83
2018-05-18T19:29:14.412Z,26.43
2018-05-18T19:31:42.799Z,16.27
2018-05-18T19:34:10.352Z,26.77
2018-05-18T19:36:37.944Z,20.33
2018-05-18T19:39:05.608Z,21.30
2018-05-18T19:41:33.215Z,21.33
2018-05-18T19:44:00.835Z,22.57
2018-05-18T19:46:28.575Z,28.23
2018-05-18T19:48:56.093Z,21.23
2018-05-18T19:51:23.646Z,21.13
2018-05-18T19:53:51.904Z,25.73
2018-05-18T19:56:20.296Z,19.90
2018-05-18T19:58:49.273Z,19.87
2018-05-18T20:01:16.805Z,20.20
2018-05-18T20:03:44.761Z,19.50
2018-05-18T20:06:12.269Z,25.47
2018-05-18T20:08:40.695Z,27.53
2018-05-18T20:11:09.695Z,24.67
2018-05-18T20:13:38.745Z,22.80
2018-05-18T20:16:07.054Z,21.63
2018-05-18T20:18:34.574Z,21.57
2018-05-18T20:21:02.913Z,30.97
2018-05-18T20:23:30.539Z,36.20
2018-05-18T20:25:58.160Z,19.97
2018-05-18T20:28:25.881Z,24.17
2018-05-18T20:30:53.436Z,20.57
2018-05-18T20:33:21.826Z,22.10
2018-05-18T20:35:49.309Z,18.13
2018-05-18T20:38:17.615Z,19.00
2018-05-18T20:40:47.119Z,17.97
2018-05-18T20:43:14.668Z,18.20
2018-05-18T20:45:42.971Z,20.63
2018-05-18T20:48:10.579Z,22.50
2018-05-18T20:50:38.584Z,24.57
2018-05-18T20:53:07.422Z,20.57
2018-05-18T20:55:34.996Z,15.53
2018-05-18T20:58:02.498Z,23.07
2018-05-18T21:00:30.953Z,20.07
2018-05-18T21:02:59.305Z,26.43
2018-05-18T21:05:28.007Z,19.10
2018-05-18T21:07:56.313Z,24.00
2018-05-18T21:10:24.139Z,23.53
2018-05-18T21:12:52.583Z,23.10
2018-05-18T21:15:20.133Z,17.40
2018-05-18T21:17:48.345Z,19.60
2018-05-18T21:20:15.997Z,20.83
2018-05-18T21:22:44.197Z,17.63
2018-05-18T21:25:12.205Z,17.53
2018-05-18T21:27:39.891Z,17.90
2018-05-18T21:30:07.495Z,20.03
2018-05-18T21:32:35.013Z,27.57
2018-05-18T21:35:02.585Z,15.33
2018-05-18T21:37:40.111Z,20.83
2018-05-18T21:40:09.225Z,24.10
2018-05-18T21:42:37.585Z,22.83
2018-05-18T21:45:05.145Z,17.93
2018-05-18T21:47:34.306Z,23.83
2018-05-18T21:50:01.819Z,28.33
2018-05-18T21:52:30.182Z,26.23
2018-05-18T21:54:58.436Z,21.63
2018-05-18T21:57:26.073Z,20.20
2018-05-18T21:59:53.581Z,22.27
2018-05-18T22:02:22.432Z,17.90
2018-05-18T22:04:50.046Z,39.63
2018-05-18T22:07:17.551Z,27.00
2018-05-18T22:09:45.062Z,36.60
2018-05-18T22:12:12.585Z,34.87
2018-05-18T22:14:40.084Z,42.20
2018-05-18T22:17:07.655Z,36.90
2018-05-18T22:19:35.310Z,41.57
2018-05-18T22:22:02.829Z,25.83
2018-05-18T22:24:31.173Z,27.70
2018-05-18T22:26:58.823Z,35.40
2018-05-18T22:29:26.324Z,27.90
2018-05-18T22:31:55.214Z,24.23
2018-05-18T22:34:23.503Z,28.57
2018-05-18T22:36:51.751Z,28.93
2018-05-18T22:39:19.265Z,25.33
2018-05-18T22:41:46.856Z,26.60
2018-05-18T22:44:15.010Z,32.80
2018-05-18T22:46:42.535Z,25.77
2018-05-18T22:49:10.103Z,35.10
2018-05-18T22:51:37.609Z,22.97
2018-05-18T22:54:07.536Z,24.47
2018-05-18T22:56:35.027Z,37.23
2018-05-18T22:59:02.575Z,51.67
2018-05-18T23:01:30.957Z,41.40
2018-05-18T23:04:00.539Z,38.47
2018-05-18T23:06:28.016Z,45.93
2018-05-18T23:08:57.969Z,30.53
2018-05-18T23:11:25.477Z,24.10
2018-05-18T23:13:52.969Z,24.97
2018-05-18T23:16:20.527Z,26.53
2018-05-18T23:18:49.743Z,32.43
2018-05-18T23:21:17.330Z,27.43
2018-05-18T23:23:44.965Z,19.10
2018-05-18T23:26:13.637Z,18.50
2018-05-18T23:28:41.184Z,26.67
2018-05-18T23:31:09.619Z,24.50
2018-05-18T23:33:37.157Z,26.70
2018-05-18T23:36:04.679Z,28.38
2018-05-18T23:38:32.164Z,24.10
2018-05-18T23:40:59.791Z,28.80
2018-05-18T23:43:27.310Z,28.60
2018-05-18T23:45:54.811Z,27.23
2018-05-18T23:48:22.343Z,30.42
2018-05-18T23:50:50.644Z,22.13
2018-05-18T23:53:18.988Z,22.30
2018-05-18T23:55:46.540Z,19.40
2018-05-18T23:58:14.065Z,20.55
